sensor_id;sensor_type;location;lat;lon;timestamp;pressure;altitude;pressure_sealevel;temperature
69857;BMP280;57147;53.582;10.112;2022-11-03T00:00:19;101603.06;;;5.69
69857;BMP280;57147;53.582;10.112;2022-11-03T00:05:22;101593.66;;;5.73
69857;BMP280;57147;53.582;10.112;2022-11-03T00:10:23;101584.63;;;5.69
69857;BMP280;57147;53.582;10.112;2022-11-03T00:15:23;101553.97;;;5.63
69857;BMP280;57147;53.582;10.112;2022-11-03T00:20:26;101574.66;;;5.71
69857;BMP280;57147;53.582;10.112;2022-11-03T00:25:27;101573.53;;;5.67
69857;BMP280;57147;53.582;10.112;2022-11-03T00:30:28;101567.06;;;5.74
69857;BMP280;57147;53.582;10.112;2022-11-03T00:35:31;101563.91;;;5.72
69857;BMP280;57147;53.582;10.112;2022-11-03T00:40:31;101562.34;;;5.76
69857;BMP280;57147;53.582;10.112;2022-11-03T00:45:32;101552.28;;;5.73
69857;BMP280;57147;53.582;10.112;2022-11-03T00:50:35;101558.09;;;5.87
69857;BMP280;57147;53.582;10.112;2022-11-03T00:55:35;101560.97;;;5.86
69857;BMP280;57147;53.582;10.112;2022-11-03T01:00:36;101556.94;;;5.83
69857;BMP280;57147;53.582;10.112;2022-11-03T01:05:41;101547.22;;;5.84
69857;BMP280;57147;53.582;10.112;2022-11-03T01:10:42;101549.22;;;5.93
69857;BMP280;57147;53.582;10.112;2022-11-03T01:15:43;101546.69;;;5.98
69857;BMP280;57147;53.582;10.112;2022-11-03T01:20:46;101533.03;;;6.01
69857;BMP280;57147;53.582;10.112;2022-11-03T01:25:47;101526.16;;;6.00
69857;BMP280;57147;53.582;10.112;2022-11-03T01:30:47;101527.28;;;6.04
69857;BMP280;57147;53.582;10.112;2022-11-03T01:35:54;101522.56;;;6.06
69857;BMP280;57147;53.582;10.112;2022-11-03T01:40:54;101524.75;;;6.09
69857;BMP280;57147;53.582;10.112;2022-11-03T01:46:01;101511.00;;;6.07
69857;BMP280;57147;53.582;10.112;2022-11-03T01:51:06;101494.84;;;6.04
69857;BMP280;57147;53.582;10.112;2022-11-03T01:56:08;101497.88;;;6.12
69857;BMP280;57147;53.582;10.112;2022-11-03T02:01:10;101486.97;;;6.21
69857;BMP280;57147;53.582;10.112;2022-11-03T02:06:14;101468.50;;;6.21
69857;BMP280;57147;53.582;10.112;2022-11-03T02:11:14;101465.94;;;6.26
69857;BMP280;57147;53.582;10.112;2022-11-03T02:16:15;101455.88;;;6.23
69857;BMP280;57147;53.582;10.112;2022-11-03T02:21:25;101439.41;;;6.16
69857;BMP280;57147;53.582;10.112;2022-11-03T02:26:28;101443.63;;;6.17
69857;BMP280;57147;53.582;10.112;2022-11-03T02:31:34;101456.97;;;6.27
69857;BMP280;57147;53.582;10.112;2022-11-03T02:36:38;101439.97;;;6.18
69857;BMP280;57147;53.582;10.112;2022-11-03T02:41:43;101452.03;;;6.30
69857;BMP280;57147;53.582;10.112;2022-11-03T02:46:46;101439.16;;;6.34
69857;BMP280;57147;53.582;10.112;2022-11-03T02:51:57;101432.13;;;6.39
69857;BMP280;57147;53.582;10.112;2022-11-03T02:57:02;101422.59;;;6.38
69857;BMP280;57147;53.582;10.112;2022-11-03T03:02:07;101412.94;;;6.44
69857;BMP280;57147;53.582;10.112;2022-11-03T03:07:12;101409.78;;;6.47
69857;BMP280;57147;53.582;10.112;2022-11-03T03:12:19;101397.66;;;6.46
69857;BMP280;57147;53.582;10.112;2022-11-03T03:17:23;101406.28;;;6.41
69857;BMP280;57147;53.582;10.112;2022-11-03T03:22:28;101390.72;;;6.40
69857;BMP280;57147;53.582;10.112;2022-11-03T03:27:36;101367.31;;;6.27
69857;BMP280;57147;53.582;10.112;2022-11-03T03:32:42;101379.31;;;6.18
69857;BMP280;57147;53.582;10.112;2022-11-03T03:37:46;101351.88;;;5.97
69857;BMP280;57147;53.582;10.112;2022-11-03T03:42:51;101377.56;;;6.06
69857;BMP280;57147;53.582;10.112;2022-11-03T03:47:52;101375.34;;;5.98
69857;BMP280;57147;53.582;10.112;2022-11-03T03:52:54;101370.09;;;5.98
69857;BMP280;57147;53.582;10.112;2022-11-03T03:57:57;101359.03;;;6.01
69857;BMP280;57147;53.582;10.112;2022-11-03T04:02:58;101358.56;;;6.04
69857;BMP280;57147;53.582;10.112;2022-11-03T04:07:59;101341.16;;;6.03
69857;BMP280;57147;53.582;10.112;2022-11-03T04:13:02;101349.13;;;6.08
69857;BMP280;57147;53.582;10.112;2022-11-03T04:18:03;101352.81;;;6.07
69857;BMP280;57147;53.582;10.112;2022-11-03T04:23:03;101339.06;;;6.05
69857;BMP280;57147;53.582;10.112;2022-11-03T04:28:12;101332.28;;;6.09
69857;BMP280;57147;53.582;10.112;2022-11-03T04:33:14;101331.72;;;6.07
69857;BMP280;57147;53.582;10.112;2022-11-03T04:38:20;101343.53;;;6.05
69857;BMP280;57147;53.582;10.112;2022-11-03T04:43:30;101322.31;;;5.95
69857;BMP280;57147;53.582;10.112;2022-11-03T04:48:33;101318.63;;;5.96
69857;BMP280;57147;53.582;10.112;2022-11-03T04:53:33;101327.09;;;5.98
69857;BMP280;57147;53.582;10.112;2022-11-03T04:58:36;101312.25;;;5.92
69857;BMP280;57147;53.582;10.112;2022-11-03T05:03:38;101325.66;;;5.90
69857;BMP280;57147;53.582;10.112;2022-11-03T05:08:40;101315.13;;;5.90
69857;BMP280;57147;53.582;10.112;2022-11-03T05:13:43;101310.34;;;5.87
69857;BMP280;57147;53.582;10.112;2022-11-03T05:18:45;101319.84;;;5.88
69857;BMP280;57147;53.582;10.112;2022-11-03T05:23:52;101282.19;;;5.71
69857;BMP280;57147;53.582;10.112;2022-11-03T05:28:57;101298.44;;;5.85
69857;BMP280;57147;53.582;10.112;2022-11-03T05:34:00;101280.25;;;5.83
69857;BMP280;57147;53.582;10.112;2022-11-03T05:39:27;101274.72;;;5.85
69857;BMP280;57147;53.582;10.112;2022-11-03T05:44:33;101269.13;;;5.81
69857;BMP280;57147;53.582;10.112;2022-11-03T05:49:33;101262.28;;;5.80
69857;BMP280;57147;53.582;10.112;2022-11-03T05:54:34;101265.78;;;5.86
69857;BMP280;57147;53.582;10.112;2022-11-03T05:59:37;101250.59;;;5.76
69857;BMP280;57147;53.582;10.112;2022-11-03T06:04:38;101262.91;;;5.87
69857;BMP280;57147;53.582;10.112;2022-11-03T06:09:38;101259.25;;;5.88
69857;BMP280;57147;53.582;10.112;2022-11-03T06:14:42;101254.03;;;5.93
69857;BMP280;57147;53.582;10.112;2022-11-03T06:19:44;101238.78;;;5.95
69857;BMP280;57147;53.582;10.112;2022-11-03T06:24:46;101248.97;;;6.08
69857;BMP280;57147;53.582;10.112;2022-11-03T06:29:54;101243.72;;;6.13
69857;BMP280;57147;53.582;10.112;2022-11-03T06:34:57;101234.88;;;6.20
69857;BMP280;57147;53.582;10.112;2022-11-03T06:40:00;101225.91;;;6.21
69857;BMP280;57147;53.582;10.112;2022-11-03T06:45:12;101226.81;;;6.31
69857;BMP280;57147;53.582;10.112;2022-11-03T06:50:21;101230.38;;;6.42
69857;BMP280;57147;53.582;10.112;2022-11-03T06:55:25;101221.44;;;6.48
69857;BMP280;57147;53.582;10.112;2022-11-03T07:00:29;101203.09;;;6.58
69857;BMP280;57147;53.582;10.112;2022-11-03T07:05:31;101216.16;;;6.75
69857;BMP280;57147;53.582;10.112;2022-11-03T07:10:32;101213.78;;;6.73
69857;BMP280;57147;53.582;10.112;2022-11-03T07:15:36;101219.72;;;6.91
69857;BMP280;57147;53.582;10.112;2022-11-03T07:20:38;101224.50;;;6.94
69857;BMP280;57147;53.582;10.112;2022-11-03T07:25:38;101214.81;;;7.04
69857;BMP280;57147;53.582;10.112;2022-11-03T07:30:41;101214.63;;;7.11
69857;BMP280;57147;53.582;10.112;2022-11-03T07:35:43;101214.09;;;7.14
69857;BMP280;57147;53.582;10.112;2022-11-03T07:40:45;101202.03;;;7.23
69857;BMP280;57147;53.582;10.112;2022-11-03T07:45:51;101200.47;;;7.27
69857;BMP280;57147;53.582;10.112;2022-11-03T07:50:54;101203.22;;;7.47
69857;BMP280;57147;53.582;10.112;2022-11-03T07:55:55;101209.56;;;7.41
69857;BMP280;57147;53.582;10.112;2022-11-03T08:00:59;101202.41;;;7.47
69857;BMP280;57147;53.582;10.112;2022-11-03T08:06:01;101188.53;;;7.72
69857;BMP280;57147;53.582;10.112;2022-11-03T08:11:01;101183.78;;;7.69
69857;BMP280;57147;53.582;10.112;2022-11-03T08:16:05;101180.38;;;7.78
69857;BMP280;57147;53.582;10.112;2022-11-03T08:21:05;101165.09;;;7.90
69857;BMP280;57147;53.582;10.112;2022-11-03T08:26:06;101160.13;;;8.14
69857;BMP280;57147;53.582;10.112;2022-11-03T08:31:09;101153.78;;;8.41
69857;BMP280;57147;53.582;10.112;2022-11-03T08:36:10;101145.84;;;8.46
69857;BMP280;57147;53.582;10.112;2022-11-03T08:41:11;101148.00;;;8.54
69857;BMP280;57147;53.582;10.112;2022-11-03T08:46:14;101150.09;;;8.67
69857;BMP280;57147;53.582;10.112;2022-11-03T08:51:15;101127.84;;;8.83
69857;BMP280;57147;53.582;10.112;2022-11-03T08:56:15;101134.19;;;9.02
69857;BMP280;57147;53.582;10.112;2022-11-03T09:01:19;101138.94;;;9.05
69857;BMP280;57147;53.582;10.112;2022-11-03T09:06:19;101136.28;;;9.00
69857;BMP280;57147;53.582;10.112;2022-11-03T09:11:20;101126.84;;;9.48
69857;BMP280;57147;53.582;10.112;2022-11-03T09:16:23;101094.56;;;9.36
69857;BMP280;57147;53.582;10.112;2022-11-03T09:21:24;101106.97;;;9.46
69857;BMP280;57147;53.582;10.112;2022-11-03T09:26:24;101098.34;;;9.74
69857;BMP280;57147;53.582;10.112;2022-11-03T09:31:27;101104.03;;;9.97
69857;BMP280;57147;53.582;10.112;2022-11-03T09:36:28;101095.91;;;9.83
69857;BMP280;57147;53.582;10.112;2022-11-03T09:41:29;101093.28;;;10.12
69857;BMP280;57147;53.582;10.112;2022-11-03T09:46:32;101086.84;;;10.18
69857;BMP280;57147;53.582;10.112;2022-11-03T09:51:34;101080.59;;;10.38
69857;BMP280;57147;53.582;10.112;2022-11-03T09:56:35;101082.13;;;10.72
69857;BMP280;57147;53.582;10.112;2022-11-03T10:01:38;101077.84;;;10.77
69857;BMP280;57147;53.582;10.112;2022-11-03T10:06:40;101066.19;;;10.72
69857;BMP280;57147;53.582;10.112;2022-11-03T10:11:41;101073.72;;;11.27
69857;BMP280;57147;53.582;10.112;2022-11-03T10:16:48;101061.94;;;11.14
69857;BMP280;57147;53.582;10.112;2022-11-03T10:21:50;101063.88;;;11.27
69857;BMP280;57147;53.582;10.112;2022-11-03T10:26:52;101060.31;;;11.37
69857;BMP280;57147;53.582;10.112;2022-11-03T10:31:56;101044.00;;;11.43
69857;BMP280;57147;53.582;10.112;2022-11-03T10:37:18;101027.25;;;11.24
69857;BMP280;57147;53.582;10.112;2022-11-03T10:42:23;101035.16;;;11.67
69857;BMP280;57147;53.582;10.112;2022-11-03T10:47:32;101044.72;;;11.81
69857;BMP280;57147;53.582;10.112;2022-11-03T10:52:33;101032.84;;;11.92
69857;BMP280;57147;53.582;10.112;2022-11-03T10:57:33;101006.25;;;11.92
69857;BMP280;57147;53.582;10.112;2022-11-03T11:02:36;101024.09;;;12.19
69857;BMP280;57147;53.582;10.112;2022-11-03T11:07:39;101003.91;;;12.46
69857;BMP280;57147;53.582;10.112;2022-11-03T11:13:08;100992.56;;;12.26
69857;BMP280;57147;53.582;10.112;2022-11-03T11:23:52;100980.44;;;12.61
69857;BMP280;57147;53.582;10.112;2022-11-03T11:34:38;100955.41;;;12.71
69857;BMP280;57147;53.582;10.112;2022-11-03T11:39:44;100954.28;;;12.99
69857;BMP280;57147;53.582;10.112;2022-11-03T11:44:47;100932.09;;;12.90
69857;BMP280;57147;53.582;10.112;2022-11-03T11:49:47;100934.16;;;12.93
69857;BMP280;57147;53.582;10.112;2022-11-03T11:54:51;100924.22;;;12.85
69857;BMP280;57147;53.582;10.112;2022-11-03T11:59:51;100903.25;;;12.92
69857;BMP280;57147;53.582;10.112;2022-11-03T12:04:56;100886.72;;;13.04
69857;BMP280;57147;53.582;10.112;2022-11-03T12:10:08;100896.94;;;13.33
69857;BMP280;57147;53.582;10.112;2022-11-03T12:20:45;100871.75;;;13.16
69857;BMP280;57147;53.582;10.112;2022-11-03T12:25:48;100867.41;;;12.98
69857;BMP280;57147;53.582;10.112;2022-11-03T12:30:48;100825.00;;;13.10
69857;BMP280;57147;53.582;10.112;2022-11-03T12:35:49;100841.00;;;13.50
69857;BMP280;57147;53.582;10.112;2022-11-03T12:40:52;100832.41;;;13.61
69857;BMP280;57147;53.582;10.112;2022-11-03T12:45:53;100828.75;;;14.06
69857;BMP280;57147;53.582;10.112;2022-11-03T12:50:53;100817.53;;;13.69
69857;BMP280;57147;53.582;10.112;2022-11-03T12:55:56;100802.72;;;13.54
69857;BMP280;57147;53.582;10.112;2022-11-03T13:00:57;100788.34;;;13.25
69857;BMP280;57147;53.582;10.112;2022-11-03T13:05:58;100787.41;;;13.21
69857;BMP280;57147;53.582;10.112;2022-11-03T13:11:02;100796.56;;;13.37
69857;BMP280;57147;53.582;10.112;2022-11-03T13:16:03;100779.97;;;13.40
69857;BMP280;57147;53.582;10.112;2022-11-03T13:21:04;100774.28;;;13.33
69857;BMP280;57147;53.582;10.112;2022-11-03T13:26:07;100768.28;;;13.18
69857;BMP280;57147;53.582;10.112;2022-11-03T13:31:08;100765.47;;;13.24
69857;BMP280;57147;53.582;10.112;2022-11-03T13:36:08;100751.72;;;12.99
69857;BMP280;57147;53.582;10.112;2022-11-03T13:41:12;100750.13;;;12.98
69857;BMP280;57147;53.582;10.112;2022-11-03T13:46:12;100731.13;;;12.91
69857;BMP280;57147;53.582;10.112;2022-11-03T13:51:13;100731.56;;;12.85
69857;BMP280;57147;53.582;10.112;2022-11-03T13:56:16;100714.38;;;12.60
69857;BMP280;57147;53.582;10.112;2022-11-03T14:01:16;100704.56;;;12.47
69857;BMP280;57147;53.582;10.112;2022-11-03T14:06:17;100707.00;;;12.34
69857;BMP280;57147;53.582;10.112;2022-11-03T14:11:20;100695.81;;;12.24
69857;BMP280;57147;53.582;10.112;2022-11-03T14:16:21;100703.81;;;12.24
69857;BMP280;57147;53.582;10.112;2022-11-03T14:21:21;100693.19;;;12.10
69857;BMP280;57147;53.582;10.112;2022-11-03T14:26:25;100692.13;;;12.11
69857;BMP280;57147;53.582;10.112;2022-11-03T14:31:25;100686.00;;;12.11
69857;BMP280;57147;53.582;10.112;2022-11-03T14:36:26;100671.25;;;12.05
69857;BMP280;57147;53.582;10.112;2022-11-03T14:41:29;100640.69;;;11.80
69857;BMP280;57147;53.582;10.112;2022-11-03T14:46:30;100649.81;;;11.87
69857;BMP280;57147;53.582;10.112;2022-11-03T14:51:30;100601.06;;;11.56
69857;BMP280;57147;53.582;10.112;2022-11-03T14:56:33;100638.50;;;11.82
69857;BMP280;57147;53.582;10.112;2022-11-03T15:01:34;100628.84;;;11.86
69857;BMP280;57147;53.582;10.112;2022-11-03T15:06:34;100612.03;;;11.77
69857;BMP280;57147;53.582;10.112;2022-11-03T15:11:37;100605.94;;;11.76
69857;BMP280;57147;53.582;10.112;2022-11-03T15:16:38;100595.94;;;11.60
69857;BMP280;57147;53.582;10.112;2022-11-03T15:21:39;100611.94;;;11.46
69857;BMP280;57147;53.582;10.112;2022-11-03T15:26:42;100593.81;;;11.34
69857;BMP280;57147;53.582;10.112;2022-11-03T15:31:43;100570.59;;;11.26
69857;BMP280;57147;53.582;10.112;2022-11-03T15:36:43;100551.31;;;11.21
69857;BMP280;57147;53.582;10.112;2022-11-03T15:41:46;100524.50;;;11.08
69857;BMP280;57147;53.582;10.112;2022-11-03T15:46:47;100515.56;;;11.04
69857;BMP280;57147;53.582;10.112;2022-11-03T15:51:48;100505.91;;;10.95
69857;BMP280;57147;53.582;10.112;2022-11-03T15:56:51;100501.88;;;10.97
69857;BMP280;57147;53.582;10.112;2022-11-03T16:01:51;100501.56;;;10.99
69857;BMP280;57147;53.582;10.112;2022-11-03T16:06:52;100486.41;;;10.99
69857;BMP280;57147;53.582;10.112;2022-11-03T16:11:55;100494.22;;;10.96
69857;BMP280;57147;53.582;10.112;2022-11-03T16:16:55;100473.09;;;10.91
69857;BMP280;57147;53.582;10.112;2022-11-03T16:21:56;100464.94;;;10.87
69857;BMP280;57147;53.582;10.112;2022-11-03T16:26:59;100449.53;;;10.76
69857;BMP280;57147;53.582;10.112;2022-11-03T16:32:00;100446.38;;;10.73
69857;BMP280;57147;53.582;10.112;2022-11-03T16:37:01;100446.38;;;10.73
69857;BMP280;57147;53.582;10.112;2022-11-03T16:42:04;100430.63;;;10.63
69857;BMP280;57147;53.582;10.112;2022-11-03T16:47:05;100421.00;;;10.67
69857;BMP280;57147;53.582;10.112;2022-11-03T16:52:05;100422.59;;;10.68
69857;BMP280;57147;53.582;10.112;2022-11-03T16:57:08;100399.97;;;10.57
69857;BMP280;57147;53.582;10.112;2022-11-03T17:02:09;100398.19;;;10.66
69857;BMP280;57147;53.582;10.112;2022-11-03T17:07:10;100396.91;;;10.64
69857;BMP280;57147;53.582;10.112;2022-11-03T17:12:13;100400.97;;;10.61
69857;BMP280;57147;53.582;10.112;2022-11-03T17:17:13;100401.53;;;10.58
69857;BMP280;57147;53.582;10.112;2022-11-03T17:22:14;100381.50;;;10.52
69857;BMP280;57147;53.582;10.112;2022-11-03T17:27:20;100389.56;;;10.47
69857;BMP280;57147;53.582;10.112;2022-11-03T17:32:24;100398.13;;;10.44
69857;BMP280;57147;53.582;10.112;2022-11-03T17:37:26;100389.16;;;10.40
69857;BMP280;57147;53.582;10.112;2022-11-03T17:42:29;100383.69;;;10.37
69857;BMP280;57147;53.582;10.112;2022-11-03T17:47:30;100368.94;;;10.30
69857;BMP280;57147;53.582;10.112;2022-11-03T17:52:30;100359.59;;;10.33
69857;BMP280;57147;53.582;10.112;2022-11-03T17:57:34;100347.72;;;10.30
69857;BMP280;57147;53.582;10.112;2022-11-03T18:02:36;100344.56;;;10.28
69857;BMP280;57147;53.582;10.112;2022-11-03T18:07:39;100328.66;;;10.15
69857;BMP280;57147;53.582;10.112;2022-11-03T18:12:44;100328.56;;;10.20
69857;BMP280;57147;53.582;10.112;2022-11-03T18:17:46;100317.28;;;10.14
69857;BMP280;57147;53.582;10.112;2022-11-03T18:22:47;100314.38;;;10.02
69857;BMP280;57147;53.582;10.112;2022-11-03T18:27:50;100291.09;;;9.85
69857;BMP280;57147;53.582;10.112;2022-11-03T18:32:50;100300.19;;;9.79
69857;BMP280;57147;53.582;10.112;2022-11-03T18:37:51;100286.88;;;9.71
69857;BMP280;57147;53.582;10.112;2022-11-03T18:42:54;100269.56;;;9.73
69857;BMP280;57147;53.582;10.112;2022-11-03T18:47:55;100263.31;;;9.69
69857;BMP280;57147;53.582;10.112;2022-11-03T18:52:56;100234.44;;;9.54
69857;BMP280;57147;53.582;10.112;2022-11-03T18:57:59;100227.38;;;9.63
69857;BMP280;57147;53.582;10.112;2022-11-03T19:03:00;100222.25;;;9.53
69857;BMP280;57147;53.582;10.112;2022-11-03T19:08:01;100208.50;;;9.51
69857;BMP280;57147;53.582;10.112;2022-11-03T19:13:04;100209.69;;;9.59
69857;BMP280;57147;53.582;10.112;2022-11-03T19:18:05;100203.59;;;9.58
69857;BMP280;57147;53.582;10.112;2022-11-03T19:23:08;100210.09;;;9.52
69857;BMP280;57147;53.582;10.112;2022-11-03T19:28:13;100200.06;;;9.49
69857;BMP280;57147;53.582;10.112;2022-11-03T19:33:18;100196.34;;;9.50
69857;BMP280;57147;53.582;10.112;2022-11-03T19:38:20;100179.97;;;9.62
69857;BMP280;57147;53.582;10.112;2022-11-03T19:43:23;100176.91;;;9.68
69857;BMP280;57147;53.582;10.112;2022-11-03T19:48:24;100168.28;;;9.63
69857;BMP280;57147;53.582;10.112;2022-11-03T19:53:27;100159.53;;;9.62
69857;BMP280;57147;53.582;10.112;2022-11-03T19:58:31;100169.25;;;9.53
69857;BMP280;57147;53.582;10.112;2022-11-03T20:03:31;100166.69;;;9.48
69857;BMP280;57147;53.582;10.112;2022-11-03T20:08:32;100158.47;;;9.49
69857;BMP280;57147;53.582;10.112;2022-11-03T20:13:40;100135.50;;;9.45
69857;BMP280;57147;53.582;10.112;2022-11-03T20:18:41;100140.50;;;9.60
69857;BMP280;57147;53.582;10.112;2022-11-03T20:23:43;100129.31;;;9.63
69857;BMP280;57147;53.582;10.112;2022-11-03T20:28:47;100083.31;;;9.32
69857;BMP280;57147;53.582;10.112;2022-11-03T20:33:47;100122.91;;;9.64
69857;BMP280;57147;53.582;10.112;2022-11-03T20:38:50;100125.25;;;9.66
69857;BMP280;57147;53.582;10.112;2022-11-03T20:43:54;100121.38;;;9.63
69857;BMP280;57147;53.582;10.112;2022-11-03T20:48:55;100099.00;;;9.42
69857;BMP280;57147;53.582;10.112;2022-11-03T20:53:56;100116.47;;;9.43
69857;BMP280;57147;53.582;10.112;2022-11-03T20:59:00;100114.50;;;9.35
69857;BMP280;57147;53.582;10.112;2022-11-03T21:04:02;100104.50;;;9.32
69857;BMP280;57147;53.582;10.112;2022-11-03T21:09:03;100088.03;;;9.35
69857;BMP280;57147;53.582;10.112;2022-11-03T21:14:12;100091.44;;;9.49
69857;BMP280;57147;53.582;10.112;2022-11-03T21:19:14;100086.41;;;9.61
69857;BMP280;57147;53.582;10.112;2022-11-03T21:24:15;100086.91;;;9.63
69857;BMP280;57147;53.582;10.112;2022-11-03T21:29:18;100062.66;;;9.56
69857;BMP280;57147;53.582;10.112;2022-11-03T21:34:19;100065.00;;;9.58
69857;BMP280;57147;53.582;10.112;2022-11-03T21:39:19;100047.16;;;9.63
69857;BMP280;57147;53.582;10.112;2022-11-03T21:44:23;100072.03;;;9.76
69857;BMP280;57147;53.582;10.112;2022-11-03T21:49:23;100068.13;;;9.73
69857;BMP280;57147;53.582;10.112;2022-11-03T21:54:24;100066.31;;;9.82
69857;BMP280;57147;53.582;10.112;2022-11-03T21:59:27;100059.44;;;9.81
69857;BMP280;57147;53.582;10.112;2022-11-03T22:04:27;100070.75;;;9.73
69857;BMP280;57147;53.582;10.112;2022-11-03T22:09:28;100072.22;;;9.79
69857;BMP280;57147;53.582;10.112;2022-11-03T22:14:31;100066.63;;;9.81
69857;BMP280;57147;53.582;10.112;2022-11-03T22:19:32;100055.72;;;9.82
69857;BMP280;57147;53.582;10.112;2022-11-03T22:24:32;100048.25;;;9.84
69857;BMP280;57147;53.582;10.112;2022-11-03T22:29:35;100041.03;;;9.76
69857;BMP280;57147;53.582;10.112;2022-11-03T22:34:36;100042.28;;;9.79
69857;BMP280;57147;53.582;10.112;2022-11-03T22:39:36;100036.38;;;9.82
69857;BMP280;57147;53.582;10.112;2022-11-03T22:44:40;100052.00;;;9.83
69857;BMP280;57147;53.582;10.112;2022-11-03T22:49:40;100049.41;;;9.92
69857;BMP280;57147;53.582;10.112;2022-11-03T22:54:41;100048.84;;;9.81
69857;BMP280;57147;53.582;10.112;2022-11-03T22:59:44;100048.69;;;9.64
69857;BMP280;57147;53.582;10.112;2022-11-03T23:04:45;100058.84;;;9.84
69857;BMP280;57147;53.582;10.112;2022-11-03T23:09:45;100053.41;;;9.67
69857;BMP280;57147;53.582;10.112;2022-11-03T23:14:48;100042.59;;;9.77
69857;BMP280;57147;53.582;10.112;2022-11-03T23:19:49;100031.78;;;9.74
69857;BMP280;57147;53.582;10.112;2022-11-03T23:24:49;100027.28;;;9.74
69857;BMP280;57147;53.582;10.112;2022-11-03T23:29:53;100015.59;;;9.75
69857;BMP280;57147;53.582;10.112;2022-11-03T23:34:53;100001.97;;;9.68
69857;BMP280;57147;53.582;10.112;2022-11-03T23:39:54;99993.97;;;9.60
69857;BMP280;57147;53.582;10.112;2022-11-03T23:44:57;99983.03;;;9.39
69857;BMP280;57147;53.582;10.112;2022-11-03T23:49:57;99977.59;;;9.22
69857;BMP280;57147;53.582;10.112;2022-11-03T23:54:58;99965.44;;;9.21
